Time;durP1;ratioP1;P1;durP2;ratioP2;P2;SDS_P1;SDS_P2;PMS_P1;PMS_P2;Temp;Humidity;BMP_temperature;BMP_pressure;BME280_temperature;BME280_humidity;BME280_pressure;Samples;Min_cycle;Max_cycle;Signal;HPM_P1;HPM_P2
2021/01/20 00:02:05;;;;;;;6.07;3.80;;;;;;;-144.99;100.00;52492.94;5051485;28;20233;-72
2021/01/20 00:04:32;;;;;;;6.10;4.50;;;;;;;-144.99;100.00;52497.00;5049112;28;20221;-72
2021/01/20 00:06:58;;;;;;;7.27;4.93;;;;;;;-144.99;100.00;52482.75;5048171;28;20290;-73
2021/01/20 00:09:24;;;;;;;8.00;5.13;;;;;;;-144.99;100.00;52554.09;5049050;28;20209;-73
2021/01/20 00:11:50;;;;;;;9.53;5.60;;;;;;;-144.99;100.00;52474.59;5051174;28;20233;-73
2021/01/20 00:14:16;;;;;;;7.77;6.30;;;;;;;-144.99;100.00;52492.94;5049086;28;20511;-73
2021/01/20 00:16:44;;;;;;;6.90;5.73;;;;;;;-144.99;100.00;52488.84;5050681;28;20230;-73
2021/01/20 00:19:10;;;;;;;7.17;5.50;;;;;;;-144.99;100.00;52509.25;5041541;28;20206;-72
2021/01/20 00:21:37;;;;;;;7.77;6.23;;;;;;;-144.99;100.00;52523.50;5050272;28;20690;-72
2021/01/20 00:24:03;;;;;;;10.77;9.67;;;;;;;-144.99;100.00;52476.63;5059814;28;20312;-73
2021/01/20 00:26:30;;;;;;;9.80;7.40;;;;;;;-144.99;100.00;52460.31;5050577;28;20283;-74
2021/01/20 00:28:56;;;;;;;7.97;7.17;;;;;;;-144.99;100.00;52505.16;5049226;28;20229;-73
2021/01/20 00:31:22;;;;;;;7.57;6.80;;;;;;;-144.99;100.00;52501.09;5043697;28;20296;-73
2021/01/20 00:33:49;;;;;;;6.70;6.00;;;;;;;-144.99;100.00;52464.41;5046071;28;20320;-73
2021/01/20 00:36:15;;;;;;;9.97;8.27;;;;;;;-144.99;100.00;52521.47;5043288;28;20522;-73
2021/01/20 00:38:41;;;;;;;9.80;8.80;;;;;;;-144.99;100.00;52458.28;5050695;28;20245;-73
2021/01/20 00:41:07;;;;;;;11.07;9.87;;;;;;;-144.99;100.00;52501.09;5038501;28;20730;-73
2021/01/20 00:43:33;;;;;;;11.57;8.30;;;;;;;-144.99;100.00;52509.25;5047961;28;20229;-73
2021/01/20 00:46:00;;;;;;;11.03;9.93;;;;;;;-144.99;100.00;52490.91;5049266;28;20252;-73
2021/01/20 00:48:26;;;;;;;12.10;9.87;;;;;;;-144.99;100.00;52501.09;5048001;28;20237;-73
2021/01/20 00:50:54;;;;;;;7.87;6.87;;;;;;;-144.99;100.00;52505.16;5049615;28;20225;-73
2021/01/20 00:53:20;;;;;;;9.17;8.23;;;;;;;-144.99;100.00;52521.47;5050380;28;20202;-74
2021/01/20 00:55:46;;;;;;;8.93;8.03;;;;;;;-144.99;100.00;52505.16;5049081;28;20227;-72
2021/01/20 00:58:12;;;;;;;9.60;8.60;;;;;;;-144.99;100.00;52468.47;5050398;28;20205;-72
2021/01/20 01:00:38;;;;;;;11.43;9.23;;;;;;;-144.99;100.00;52523.50;5049559;28;20224;-72
2021/01/20 01:03:05;;;;;;;10.80;9.63;;;;;;;-144.99;100.00;52476.63;5048590;28;20235;-72
2021/01/20 01:05:37;;;;;;;12.17;9.87;;;;;;;-144.99;100.00;52509.25;5117890;27;750182;-72
2021/01/20 01:08:04;;;;;;;9.63;8.60;;;;;;;-144.99;100.00;52486.81;5126870;28;20240;-71
2021/01/20 01:10:30;;;;;;;11.07;8.77;;;;;;;-144.99;100.00;52492.94;5126800;28;20283;-71
2021/01/20 01:12:56;;;;;;;11.43;9.73;;;;;;;-144.99;100.00;52497.00;5125033;28;20277;-72
2021/01/20 01:15:22;;;;;;;11.87;8.87;;;;;;;-144.99;100.00;52515.34;5126499;28;20241;-72
2021/01/20 01:17:48;;;;;;;14.23;10.23;;;;;;;-144.99;100.00;52513.31;5125792;28;20748;-72
2021/01/20 01:20:15;;;;;;;12.27;10.67;;;;;;;-144.99;100.00;52521.47;5124693;28;20237;-73
2021/01/20 01:22:42;;;;;;;11.53;10.33;;;;;;;-144.99;100.00;52509.25;5122683;28;20273;-73
2021/01/20 01:25:09;;;;;;;12.93;10.63;;;;;;;-144.99;100.00;52521.47;5119587;28;20305;-73
2021/01/20 01:27:35;;;;;;;11.30;9.93;;;;;;;-144.99;100.00;52488.84;5126103;28;20247;-73
2021/01/20 01:30:01;;;;;;;14.37;12.87;;;;;;;-144.99;100.00;52492.94;5125187;28;20289;-73
2021/01/20 01:32:28;;;;;;;14.83;13.03;;;;;;;-144.99;100.00;52523.50;5125160;28;20325;-72
2021/01/20 01:34:54;;;;;;;15.53;13.17;;;;;;;-144.99;100.00;52525.56;5125018;28;20254;-73
2021/01/20 01:37:20;;;;;;;14.03;12.30;;;;;;;-144.99;100.00;52501.09;5125353;28;20290;-72
2021/01/20 01:39:47;;;;;;;13.50;11.27;;;;;;;-144.99;100.00;52527.59;5124167;28;20246;-72
2021/01/20 01:42:13;;;;;;;14.83;11.63;;;;;;;-144.99;100.00;52509.25;5127278;28;20290;-72
2021/01/20 01:44:39;;;;;;;19.83;13.63;;;;;;;-144.99;100.00;52525.56;5125318;28;20230;-73
2021/01/20 01:47:06;;;;;;;14.50;12.20;;;;;;;-144.99;100.00;52525.56;5126147;28;20248;-74
2021/01/20 01:49:32;;;;;;;15.67;12.37;;;;;;;-144.99;100.00;52547.97;5122449;28;20207;-74
2021/01/20 01:52:00;;;;;;;12.93;11.47;;;;;;;-144.99;100.00;52484.78;5119871;28;20642;-75
2021/01/20 01:54:28;;;;;;;21.50;15.00;;;;;;;-144.99;100.00;52472.56;5121955;28;20248;-75
2021/01/20 01:56:56;;;;;;;15.33;12.30;;;;;;;-144.99;100.00;52525.56;5112506;28;20300;-73
2021/01/20 01:59:22;;;;;;;16.43;14.07;;;;;;;-144.99;100.00;52509.25;5122305;28;20743;-72
2021/01/20 02:01:49;;;;;;;18.17;12.57;;;;;;;-144.99;100.00;52517.41;5125667;28;20222;-73
2021/01/20 02:04:15;;;;;;;13.30;11.90;;;;;;;-144.99;100.00;52513.31;5123336;28;20215;-73
2021/01/20 02:06:43;;;;;;;16.23;13.67;;;;;;;-144.99;100.00;52505.16;5125039;28;20622;-74
2021/01/20 02:09:09;;;;;;;18.37;12.23;;;;;;;-144.99;100.00;52550.00;5125841;28;20629;-72
2021/01/20 02:11:45;;;;;;;12.47;11.17;;;;;;;-144.99;100.00;52490.91;5124615;28;20348;-73
2021/01/20 02:14:26;;;;;;;17.17;11.93;;;;;;;-144.99;100.00;52501.09;5122704;28;20266;-72
2021/01/20 02:16:59;;;;;;;14.87;11.27;;;;;;;-144.99;100.00;52513.31;5113252;28;20468;-72
2021/01/20 02:19:39;;;;;;;13.47;11.33;;;;;;;-144.99;100.00;52503.13;5109345;28;20601;-73
2021/01/20 02:22:15;;;;;;;12.80;10.50;;;;;;;-144.99;100.00;52513.31;5114658;28;20269;-73
2021/01/20 02:24:51;;;;;;;15.17;11.90;;;;;;;-144.99;100.00;52490.91;5113791;28;20274;-73
2021/01/20 02:27:25;;;;;;;13.50;11.07;;;;;;;-144.99;100.00;52511.28;5114096;28;20227;-73
2021/01/20 02:30:09;;;;;;;14.13;10.83;;;;;;;-144.99;100.00;52511.28;5111289;28;20347;-73
2021/01/20 02:32:37;;;;;;;16.33;11.43;;;;;;;-144.99;100.00;52513.31;5109768;28;20655;-73
2021/01/20 02:35:08;;;;;;;15.27;11.40;;;;;;;-144.99;100.00;52521.47;5098179;28;20293;-74
2021/01/20 02:37:36;;;;;;;19.70;14.00;;;;;;;-144.99;100.00;52492.94;5112257;28;20192;-73
2021/01/20 02:40:04;;;;;;;14.00;12.40;;;;;;;-144.99;100.00;52497.00;5112113;28;20280;-74
2021/01/20 02:42:30;;;;;;;16.20;11.47;;;;;;;-144.99;100.00;52533.69;5111341;28;20775;-74
2021/01/20 02:44:57;;;;;;;13.83;11.37;;;;;;;-144.99;100.00;52529.63;5112932;28;20230;-74
2021/01/20 02:47:24;;;;;;;14.07;12.53;;;;;;;-144.99;100.00;52521.47;5112250;28;20242;-73
2021/01/20 02:49:51;;;;;;;18.97;12.43;;;;;;;-144.99;100.00;52509.25;5106691;28;20290;-73
2021/01/20 02:52:29;;;;;;;13.33;11.93;;;;;;;-144.99;100.00;52517.41;5105503;28;20294;-73
2021/01/20 02:54:59;;;;;;;15.60;12.33;;;;;;;-144.99;100.00;52550.00;5106877;28;20288;-73
2021/01/20 02:57:27;;;;;;;15.37;13.33;;;;;;;-144.99;100.00;52513.31;5106803;28;20321;-73
2021/01/20 02:59:56;;;;;;;15.67;11.53;;;;;;;-144.99;100.00;52517.41;5101692;28;20252;-73
2021/01/20 03:02:24;;;;;;;16.23;12.20;;;;;;;-144.99;100.00;52509.25;5111675;28;20257;-74
2021/01/20 03:04:53;;;;;;;17.00;13.43;;;;;;;-144.99;100.00;52476.63;5108921;28;20323;-74
2021/01/20 03:07:21;;;;;;;16.13;13.63;;;;;;;-144.99;100.00;52517.41;5100014;28;20591;-73
2021/01/20 03:09:47;;;;;;;13.77;12.37;;;;;;;-144.99;100.00;52545.94;5110754;28;20486;-72
2021/01/20 03:12:13;;;;;;;17.77;12.73;;;;;;;-144.99;100.00;52507.19;5109508;28;20377;-73
2021/01/20 03:14:43;;;;;;;15.80;13.50;;;;;;;-144.99;100.00;52511.28;5105577;28;20218;-73
2021/01/20 03:17:10;;;;;;;16.37;14.20;;;;;;;-144.99;100.00;52545.94;5110215;28;20477;-72
2021/01/20 03:19:37;;;;;;;17.40;15.17;;;;;;;-144.99;100.00;52550.00;5107825;28;20283;-73
2021/01/20 03:22:03;;;;;;;17.77;15.10;;;;;;;-144.99;100.00;52517.41;5110912;28;20207;-74
2021/01/20 03:24:29;;;;;;;18.60;14.70;;;;;;;-144.99;100.00;52521.47;5111330;28;20219;-74
2021/01/20 03:26:55;;;;;;;20.53;15.20;;;;;;;-144.99;100.00;52488.84;5103833;28;20211;-74
2021/01/20 03:29:21;;;;;;;21.37;19.30;;;;;;;-144.99;100.00;52521.47;5100316;28;20235;-73
2021/01/20 03:31:48;;;;;;;17.37;15.33;;;;;;;-144.99;100.00;52541.84;5110347;28;20426;-73
2021/01/20 03:34:14;;;;;;;16.57;14.90;;;;;;;-144.99;100.00;52556.13;5108768;28;20621;-73
2021/01/20 03:36:41;;;;;;;17.93;15.87;;;;;;;-144.99;100.00;52523.50;5108670;28;20704;-73
2021/01/20 03:39:07;;;;;;;17.90;16.00;;;;;;;-144.99;100.00;52558.16;5110004;28;20200;-73
2021/01/20 03:41:33;;;;;;;21.10;15.20;;;;;;;-144.99;100.00;52480.72;5107290;28;20312;-73
2021/01/20 03:43:59;;;;;;;18.80;16.17;;;;;;;-144.99;100.00;52566.31;5098501;28;20701;-73
2021/01/20 03:46:25;;;;;;;21.57;16.53;;;;;;;-144.99;100.00;52562.25;5110068;28;20295;-73
2021/01/20 03:48:52;;;;;;;16.97;15.27;;;;;;;-144.99;100.00;52554.09;5107054;28;20203;-73
2021/01/20 03:51:18;;;;;;;18.23;13.47;;;;;;;-144.99;100.00;52521.47;5103250;28;20191;-73
2021/01/20 03:53:45;;;;;;;17.20;14.93;;;;;;;-144.99;100.00;52578.53;5108389;28;20212;-73
2021/01/20 03:56:11;;;;;;;26.57;17.03;;;;;;;-144.99;100.00;52550.00;5110347;28;20274;-73
2021/01/20 03:58:37;;;;;;;25.33;18.17;;;;;;;-144.99;100.00;52533.69;5108672;28;20208;-73
2021/01/20 04:01:03;;;;;;;22.87;17.17;;;;;;;-144.99;100.00;52525.56;5109760;28;20200;-73
2021/01/20 04:03:29;;;;;;;21.53;17.10;;;;;;;-144.99;100.00;52521.47;5102878;28;21094;-73
2021/01/20 04:05:55;;;;;;;27.57;16.43;;;;;;;-144.99;100.00;52519.44;5103695;28;20318;-74
2021/01/20 04:08:21;;;;;;;27.30;15.97;;;;;;;-144.99;100.00;52550.00;5110164;28;20357;-73
2021/01/20 04:10:48;;;;;;;17.30;13.37;;;;;;;-144.99;100.00;52533.69;5109446;28;20203;-72
2021/01/20 04:13:14;;;;;;;19.60;14.00;;;;;;;-144.99;100.00;52545.94;5107063;28;20274;-72
2021/01/20 04:15:40;;;;;;;15.80;13.23;;;;;;;-144.99;100.00;52541.84;5108574;28;21285;-72
2021/01/20 04:18:06;;;;;;;24.70;16.20;;;;;;;-144.99;100.00;52507.19;5113026;27;20660;-72
2021/01/20 04:20:33;;;;;;;16.33;13.07;;;;;;;-144.99;100.00;52521.47;5107224;28;20227;-72
2021/01/20 04:22:59;;;;;;;20.17;14.20;;;;;;;-144.99;100.00;52590.78;5109869;28;20223;-71
2021/01/20 04:25:25;;;;;;;20.07;14.50;;;;;;;-144.99;100.00;52541.84;5109230;28;20231;-72
2021/01/20 04:27:52;;;;;;;17.83;13.37;;;;;;;-144.99;100.00;52529.63;5108921;28;20207;-72
2021/01/20 04:30:19;;;;;;;14.97;13.03;;;;;;;-144.99;100.00;52505.16;5109861;28;20626;-71
2021/01/20 04:32:45;;;;;;;19.83;13.57;;;;;;;-144.99;100.00;52533.69;5124455;28;20636;-71
2021/01/20 04:35:12;;;;;;;14.17;12.37;;;;;;;-144.99;100.00;52533.69;5117583;28;20218;-72
2021/01/20 04:37:38;;;;;;;13.70;11.90;;;;;;;-144.99;100.00;52492.94;5109451;28;20223;-72
2021/01/20 04:40:06;;;;;;;17.73;14.20;;;;;;;-144.99;100.00;52541.84;5109777;28;20196;-72
2021/01/20 04:42:33;;;;;;;18.43;11.97;;;;;;;-144.99;100.00;52554.09;5110482;28;20276;-72
2021/01/20 04:45:00;;;;;;;17.23;13.27;;;;;;;-144.99;100.00;52517.41;5106276;28;20344;-71
2021/01/20 04:47:28;;;;;;;14.20;12.70;;;;;;;-144.99;100.00;52531.66;5110701;28;20633;-72
2021/01/20 04:49:55;;;;;;;18.70;14.20;;;;;;;-144.99;100.00;52486.81;5105069;28;20628;-72
2021/01/20 04:52:22;;;;;;;19.37;12.83;;;;;;;-144.99;100.00;52513.31;5106524;28;20223;-72
2021/01/20 04:54:50;;;;;;;19.27;16.60;;;;;;;-144.99;100.00;52509.25;5105290;28;20211;-72
2021/01/20 04:57:16;;;;;;;13.50;11.37;;;;;;;-144.99;100.00;52525.56;5109150;28;20659;-71
2021/01/20 04:59:43;;;;;;;13.23;11.20;;;;;;;-144.99;100.00;52494.97;5107196;28;20292;-72
2021/01/20 05:02:11;;;;;;;13.33;9.73;;;;;;;-144.99;100.00;52525.56;5108156;28;20206;-73
2021/01/20 05:04:38;;;;;;;19.53;13.47;;;;;;;-144.99;100.00;52539.81;5105889;28;20302;-73
2021/01/20 05:07:06;;;;;;;13.97;11.37;;;;;;;-144.99;100.00;52505.16;5107162;28;20196;-74
2021/01/20 05:09:32;;;;;;;13.33;10.60;;;;;;;-144.99;100.00;52537.78;5108455;28;20242;-73
2021/01/20 05:11:58;;;;;;;15.83;11.87;;;;;;;-144.99;100.00;52529.63;5108015;28;20242;-73
2021/01/20 05:14:24;;;;;;;15.13;11.33;;;;;;;-144.99;100.00;52497.00;5108031;28;20201;-74
2021/01/20 05:16:52;;;;;;;15.90;11.47;;;;;;;-144.99;100.00;52560.19;5109033;28;20251;-73
2021/01/20 05:19:34;;;;;;;17.50;11.40;;;;;;;-144.99;100.00;52566.31;5111079;28;20628;-77
2021/01/20 05:22:04;;;;;;;24.50;16.13;;;;;;;-144.99;100.00;52501.09;5109804;28;20230;-76
2021/01/20 05:24:31;;;;;;;11.13;9.93;;;;;;;-144.99;100.00;52562.25;5104831;28;20448;-74
2021/01/20 05:26:57;;;;;;;14.60;10.60;;;;;;;-144.99;100.00;52521.47;5110271;28;20617;-76
2021/01/20 05:29:24;;;;;;;14.67;9.73;;;;;;;-144.99;100.00;52558.16;5092012;28;20220;-76
2021/01/20 05:31:50;;;;;;;12.77;9.17;;;;;;;-144.99;100.00;52533.69;5105912;28;20204;-76
2021/01/20 05:34:39;;;;;;;15.43;10.07;;;;;;;-144.99;100.00;52517.41;5104656;28;20269;-75
2021/01/20 05:37:07;;;;;;;16.23;11.63;;;;;;;-144.99;100.00;52501.09;5102731;28;20215;-76
2021/01/20 05:39:35;;;;;;;13.47;9.90;;;;;;;-144.99;100.00;52525.56;5108771;28;21226;-75
2021/01/20 05:42:02;;;;;;;9.53;7.23;;;;;;;-144.99;100.00;52525.56;5109841;28;20559;-76
2021/01/20 05:44:29;;;;;;;11.77;7.87;;;;;;;-144.99;100.00;52517.41;5108212;28;20316;-75
2021/01/20 05:46:55;;;;;;;12.07;7.97;;;;;;;-144.99;100.00;52519.44;5108791;28;20278;-74
2021/01/20 05:49:23;;;;;;;11.00;9.13;;;;;;;-144.99;100.00;52488.84;5106431;28;20869;-76
2021/01/20 05:51:51;;;;;;;13.27;9.60;;;;;;;-144.99;100.00;52488.84;5108046;28;20206;-77
2021/01/20 05:54:30;;;;;;;13.23;8.10;;;;;;;-144.99;100.00;52513.31;5105158;28;20516;-76
2021/01/20 05:57:10;;;;;;;14.70;9.00;;;;;;;-144.99;100.00;52507.19;5102391;28;20234;-76
2021/01/20 05:59:36;;;;;;;13.37;6.87;;;;;;;-144.99;100.00;52488.84;5113743;28;20282;-75
2021/01/20 06:02:02;;;;;;;9.10;7.97;;;;;;;-144.99;100.00;52472.56;5105504;28;20249;-76
2021/01/20 06:04:30;;;;;;;11.23;8.07;;;;;;;-144.99;100.00;52509.25;5095085;28;20327;-76
2021/01/20 06:06:57;;;;;;;10.00;6.83;;;;;;;-144.99;100.00;52513.31;5110012;28;20211;-74
2021/01/20 06:09:25;;;;;;;14.47;7.97;;;;;;;-144.99;100.00;52554.09;4041499;28;10000957;-75
2021/01/20 06:11:52;;;;;;;13.03;7.53;;;;;;;-144.99;100.00;52541.84;5110023;28;20916;-77
2021/01/20 06:14:18;;;;;;;11.87;8.03;;;;;;;-144.99;100.00;52547.97;5109799;28;20207;-77
2021/01/20 06:16:49;;;;;;;9.63;6.40;;;;;;;-144.99;100.00;52529.63;5108544;28;20665;-74
2021/01/20 06:19:20;;;;;;;14.93;7.20;;;;;;;-144.99;100.00;52537.78;5121814;27;20627;-77
2021/01/20 06:21:47;;;;;;;7.97;6.53;;;;;;;-144.99;100.00;52570.38;5115908;27;20318;-77
2021/01/20 06:24:17;;;;;;;10.67;6.03;;;;;;;-144.99;100.00;52550.00;5109308;28;20374;-77
2021/01/20 06:26:49;;;;;;;10.80;9.67;;;;;;;-144.99;100.00;52515.34;5108463;28;20251;-76
2021/01/20 06:29:21;;;;;;;10.70;6.77;;;;;;;-144.99;100.00;52533.69;5107744;28;20292;-75
2021/01/20 06:31:49;;;;;;;15.00;7.67;;;;;;;-144.99;100.00;52558.16;5108891;28;20528;-75
2021/01/20 06:34:15;;;;;;;10.40;7.50;;;;;;;-144.99;100.00;52499.06;5108224;28;20252;-75
2021/01/20 06:36:41;;;;;;;7.87;6.53;;;;;;;-144.99;100.00;52513.31;5108817;28;20644;-75
2021/01/20 06:39:33;;;;;;;15.50;9.27;;;;;;;-144.99;100.00;52501.09;5109466;28;20295;-76
2021/01/20 06:42:01;;;;;;;11.90;7.60;;;;;;;-144.99;100.00;52560.19;5112991;28;20207;-75
2021/01/20 06:44:28;;;;;;;10.90;7.87;;;;;;;-144.99;100.00;52545.94;5116082;28;20253;-74
2021/01/20 06:47:05;;;;;;;20.00;11.63;;;;;;;-144.99;100.00;52501.09;5109265;28;20258;-75
2021/01/20 06:49:32;;;;;;;10.17;6.53;;;;;;;-144.99;100.00;52501.09;5106586;28;20294;-75
2021/01/20 06:52:10;;;;;;;15.10;7.70;;;;;;;-144.99;100.00;52545.94;5102016;28;20200;-77
2021/01/20 06:54:39;;;;;;;16.60;8.63;;;;;;;-144.99;100.00;52513.31;5105276;28;20207;-77
2021/01/20 06:57:28;;;;;;;9.90;7.27;;;;;;;-144.99;100.00;52509.25;5108780;28;20207;-76
2021/01/20 07:00:14;;;;;;;14.63;7.80;;;;;;;-144.99;100.00;52545.94;5108536;28;20196;-78
2021/01/20 07:03:03;;;;;;;8.00;6.40;;;;;;;-144.99;100.00;52517.41;5109036;28;20302;-78
2021/01/20 07:05:38;;;;;;;14.03;8.13;;;;;;;-144.99;100.00;52552.03;5090728;28;20250;-75
2021/01/20 07:08:08;;;;;;;13.63;6.83;;;;;;;-144.99;100.00;52531.66;5110034;28;20251;-77
2021/01/20 07:11:09;;;;;;;11.07;8.67;;;;;;;-144.99;100.00;52521.47;5109152;28;20203;-74
2021/01/20 07:13:37;;;;;;;14.27;8.97;;;;;;;-144.99;100.00;52517.41;5102100;28;20203;-77
2021/01/20 07:16:06;;;;;;;10.07;8.07;;;;;;;-144.99;100.00;52525.56;5099795;28;20238;-77
2021/01/20 07:18:32;;;;;;;15.03;8.67;;;;;;;-144.99;100.00;52492.94;5103704;28;20627;-77
2021/01/20 07:20:58;;;;;;;18.23;8.77;;;;;;;-144.99;100.00;52521.47;5107925;28;20640;-76
2021/01/20 07:23:25;;;;;;;10.67;8.73;;;;;;;-144.99;100.00;52529.63;5108667;28;21247;-75
2021/01/20 07:25:53;;;;;;;12.80;8.00;;;;;;;-144.99;100.00;52533.69;5108632;28;20536;-76
2021/01/20 07:28:22;;;;;;;17.20;8.30;;;;;;;-144.99;100.00;52558.16;5108587;28;20231;-75
2021/01/20 07:30:48;;;;;;;17.33;9.87;;;;;;;-144.99;100.00;52533.69;5111692;28;20207;-77
2021/01/20 07:33:22;;;;;;;10.73;6.57;;;;;;;-144.99;100.00;52519.44;5115232;28;20617;-79
2021/01/20 07:35:49;;;;;;;11.03;7.53;;;;;;;-144.99;100.00;52541.84;5116578;28;20306;-77
2021/01/20 07:38:16;;;;;;;12.53;8.10;;;;;;;-144.99;100.00;52527.59;5099185;28;20204;-76
2021/01/20 07:40:44;;;;;;;11.20;7.23;;;;;;;-144.99;100.00;52537.78;5110550;28;20849;-75
2021/01/20 07:43:22;;;;;;;11.33;7.10;;;;;;;-144.99;100.00;52517.41;5110835;28;21069;-76
2021/01/20 07:45:48;;;;;;;9.37;7.13;;;;;;;-144.99;100.00;52513.31;5109289;28;20220;-75
2021/01/20 07:48:14;;;;;;;11.80;7.77;;;;;;;-144.99;100.00;52541.84;5107038;28;20673;-70
2021/01/20 07:50:46;;;;;;;14.77;8.90;;;;;;;-144.99;100.00;52505.16;5099322;28;20760;-70
2021/01/20 07:53:14;;;;;;;9.80;7.73;;;;;;;-144.99;100.00;52521.47;5104562;28;20231;-75
2021/01/20 07:55:41;;;;;;;9.03;7.20;;;;;;;-144.99;100.00;52484.78;5106910;28;20651;-72
2021/01/20 07:58:08;;;;;;;11.03;7.23;;;;;;;-144.99;100.00;52558.16;5106243;28;20265;-74
2021/01/20 08:00:42;;;;;;;11.77;6.93;;;;;;;-144.99;100.00;52525.56;5096492;28;20621;-73
2021/01/20 08:03:09;;;;;;;11.40;7.20;;;;;;;-144.99;100.00;52519.44;5105853;28;20620;-75
2021/01/20 08:05:35;;;;;;;14.20;9.33;;;;;;;-144.99;100.00;52476.63;5105957;28;20566;-73
2021/01/20 08:08:10;;;;;;;10.73;8.20;;;;;;;-144.99;100.00;52541.84;5106303;28;20696;-74
2021/01/20 08:10:37;;;;;;;11.40;6.80;;;;;;;-144.99;100.00;52525.56;5107815;28;20771;-75
2021/01/20 08:13:04;;;;;;;9.10;6.40;;;;;;;-144.99;100.00;52517.41;5107392;28;20688;-72
2021/01/20 08:15:37;;;;;;;12.60;10.10;;;;;;;-144.99;100.00;52562.25;5108593;28;21279;-71
2021/01/20 08:18:06;;;;;;;12.90;8.07;;;;;;;-144.99;100.00;52550.00;5109459;27;20620;-73
2021/01/20 08:20:34;;;;;;;7.73;6.33;;;;;;;-144.99;100.00;52525.56;5110284;27;20199;-72
2021/01/20 08:23:01;;;;;;;10.13;6.87;;;;;;;-144.99;100.00;52513.31;5106485;28;20684;-72
2021/01/20 08:25:27;;;;;;;11.50;6.47;;;;;;;-144.99;100.00;52554.09;5112379;27;20230;-70
2021/01/20 08:27:54;;;;;;;9.73;6.20;;;;;;;-144.99;100.00;52517.41;5105892;28;20219;-73
2021/01/20 08:30:31;;;;;;;9.60;7.13;;;;;;;-144.99;100.00;52515.34;5105714;28;20199;-74
2021/01/20 08:32:59;;;;;;;8.93;6.30;;;;;;;-144.99;100.00;52562.25;5101050;28;20202;-73
2021/01/20 08:35:30;;;;;;;9.00;5.43;;;;;;;-144.99;100.00;52517.41;5105690;28;20704;-73
2021/01/20 08:37:57;;;;;;;10.67;6.37;;;;;;;-144.99;100.00;52537.78;5106836;28;20230;-71
2021/01/20 08:40:23;;;;;;;9.87;6.57;;;;;;;-144.99;100.00;52545.94;5102533;28;20222;-73
2021/01/20 08:42:49;;;;;;;9.07;5.90;;;;;;;-144.99;100.00;52494.97;5102470;28;20203;-72
2021/01/20 08:45:17;;;;;;;12.20;5.67;;;;;;;-144.99;100.00;52497.00;5096260;28;20284;-72
2021/01/20 08:47:46;;;;;;;8.40;5.73;;;;;;;-144.99;100.00;52527.59;5104970;28;20256;-73
2021/01/20 08:50:14;;;;;;;9.07;5.60;;;;;;;-144.99;100.00;52507.19;5099329;28;20203;-72
2021/01/20 08:52:46;;;;;;;14.30;6.63;;;;;;;-144.99;100.00;52515.34;5103703;28;20252;-72
2021/01/20 08:55:27;;;;;;;11.90;5.20;;;;;;;-144.99;100.00;52505.16;5103653;28;20220;-71
2021/01/20 08:58:33;;;;;;;11.53;5.33;;;;;;;-144.99;100.00;52517.41;5104596;28;20286;-72
2021/01/20 09:01:02;;;;;;;6.70;4.27;;;;;;;-144.99;100.00;52545.94;5087737;28;20300;-73
2021/01/20 09:03:30;;;;;;;10.53;5.83;;;;;;;-144.99;100.00;52513.31;5104449;28;20583;-73
2021/01/20 09:05:58;;;;;;;9.13;5.70;;;;;;;-144.99;100.00;52517.41;5103461;28;20277;-73
2021/01/20 09:08:27;;;;;;;13.33;7.40;;;;;;;-144.99;100.00;52574.47;5105496;28;20199;-73
2021/01/20 09:10:54;;;;;;;6.40;5.10;;;;;;;-144.99;100.00;52505.16;5105456;28;20207;-72
2021/01/20 09:13:21;;;;;;;9.60;5.40;;;;;;;-144.99;100.00;52482.75;5102622;28;20693;-73
2021/01/20 09:15:49;;;;;;;10.20;5.20;;;;;;;-144.99;100.00;52521.47;5104729;28;20215;-72
2021/01/20 09:18:15;;;;;;;7.57;4.57;;;;;;;-144.99;100.00;52521.47;5103400;28;20444;-72
2021/01/20 09:20:42;;;;;;;7.33;4.50;;;;;;;-144.99;100.00;52472.56;5104640;28;20220;-74
2021/01/20 09:23:08;;;;;;;8.03;4.90;;;;;;;-144.99;100.00;52501.09;5107415;28;20204;-73
2021/01/20 09:25:36;;;;;;;6.60;5.03;;;;;;;-144.99;100.00;52537.78;5115129;28;20238;-74
2021/01/20 09:28:03;;;;;;;8.37;4.43;;;;;;;-144.99;100.00;52492.94;5104940;28;20207;-73
2021/01/20 09:30:30;;;;;;;7.67;4.20;;;;;;;-144.99;100.00;52525.56;5112057;28;20736;-75
2021/01/20 09:32:56;;;;;;;7.57;4.73;;;;;;;-144.99;100.00;52521.47;5113535;28;20203;-74
2021/01/20 09:35:23;;;;;;;9.93;4.77;;;;;;;-144.99;99.93;52517.41;5110579;28;20227;-74
2021/01/20 09:37:50;;;;;;;9.07;3.70;;;;;;;-144.99;100.00;52476.63;5112992;28;20206;-75
2021/01/20 09:40:18;;;;;;;6.27;4.13;;;;;;;-144.99;99.56;52533.69;5109593;28;20282;-73
2021/01/20 09:42:47;;;;;;;8.97;4.57;;;;;;;-144.99;99.00;52501.09;5113228;28;20207;-75
2021/01/20 09:45:15;;;;;;;5.67;3.73;;;;;;;-144.99;98.61;52478.66;5107283;28;20649;-75
2021/01/20 09:47:43;;;;;;;6.83;4.10;;;;;;;-144.99;97.50;52509.25;5104283;28;20226;-76
2021/01/20 09:50:12;;;;;;;9.10;7.17;;;;;;;-144.99;98.24;52513.31;5105372;28;20287;-74
2021/01/20 09:52:38;;;;;;;7.47;3.67;;;;;;;-144.99;97.01;52509.25;5117270;28;20269;-75
2021/01/20 09:55:06;;;;;;;9.10;4.83;;;;;;;-144.99;96.35;52501.09;5118494;28;20592;-74
2021/01/20 09:57:32;;;;;;;6.73;3.10;;;;;;;-144.99;95.92;52488.84;5118501;28;20214;-75
2021/01/20 10:00:01;;;;;;;7.40;4.53;;;;;;;-144.99;96.08;52472.56;5111129;28;20204;-73
2021/01/20 10:02:27;;;;;;;5.77;4.03;;;;;;;-144.99;95.13;52480.72;5117564;28;20561;-72
2021/01/20 10:04:53;;;;;;;5.23;3.90;;;;;;;-144.99;95.54;52466.44;5108756;28;20231;-71
2021/01/20 10:07:20;;;;;;;4.93;3.77;;;;;;;-144.99;94.90;52468.47;5104163;28;20722;-75
2021/01/20 10:09:47;;;;;;;8.23;4.80;;;;;;;-144.99;94.99;52474.59;5107849;28;20665;-74
2021/01/20 10:12:14;;;;;;;6.03;3.37;;;;;;;-144.99;94.89;52488.84;5109493;28;20349;-77
2021/01/20 10:14:42;;;;;;;6.93;3.50;;;;;;;-144.99;94.91;52464.41;5108804;28;20191;-75
2021/01/20 10:17:09;;;;;;;6.67;3.33;;;;;;;-144.99;96.05;52525.56;5110336;28;20718;-74
2021/01/20 10:19:36;;;;;;;5.17;4.47;;;;;;;-144.99;97.45;52509.25;5113162;27;20650;-78
2021/01/20 10:22:03;;;;;;;5.60;3.87;;;;;;;-144.99;98.27;52480.72;5110447;28;20303;-73
2021/01/20 10:24:29;;;;;;;4.83;3.27;;;;;;;-144.99;100.00;52492.94;5103078;28;20246;-77
2021/01/20 10:26:56;;;;;;;6.93;3.57;;;;;;;-144.99;100.00;52513.31;5110688;28;20689;-77
2021/01/20 10:29:26;;;;;;;7.20;3.73;;;;;;;-144.99;100.00;52501.09;5108862;28;20199;-77
2021/01/20 10:31:53;;;;;;;7.00;4.47;;;;;;;-144.99;100.00;52517.41;5106091;28;20287;-75
2021/01/20 10:34:20;;;;;;;5.03;2.87;;;;;;;-144.99;100.00;52513.31;5107959;28;20759;-77
2021/01/20 10:36:46;;;;;;;6.73;3.57;;;;;;;-144.99;100.00;52529.63;5107336;28;20672;-75
2021/01/20 10:39:12;;;;;;;6.70;4.77;;;;;;;-144.99;100.00;52529.63;5109744;28;20211;-74
2021/01/20 10:41:39;;;;;;;5.33;3.30;;;;;;;-144.99;100.00;52509.25;5107276;28;20246;-75
2021/01/20 10:44:06;;;;;;;4.97;3.00;;;;;;;-144.99;99.81;52480.72;5109668;28;20215;-75
2021/01/20 10:46:33;;;;;;;5.40;3.70;;;;;;;-144.99;98.37;52494.97;5107261;28;20246;-75
2021/01/20 10:49:01;;;;;;;5.10;2.90;;;;;;;-144.99;98.10;52505.16;5107738;28;20214;-74
2021/01/20 10:51:31;;;;;;;9.17;4.27;;;;;;;-144.99;97.78;52545.94;5108573;28;20225;-77
2021/01/20 10:53:58;;;;;;;5.47;2.93;;;;;;;-144.99;97.67;52497.00;5099646;28;20195;-77
2021/01/20 10:56:24;;;;;;;5.93;3.20;;;;;;;-144.99;96.43;52529.63;5110096;28;20701;-75
2021/01/20 10:58:51;;;;;;;6.53;3.47;;;;;;;-144.99;96.16;52480.72;5100915;28;20481;-73
2021/01/20 11:01:17;;;;;;;8.73;3.97;;;;;;;-144.99;95.47;52529.63;5108468;28;20204;-75
2021/01/20 11:03:44;;;;;;;5.87;2.83;;;;;;;-144.99;95.81;52497.00;5112744;28;20196;-76
2021/01/20 11:06:10;;;;;;;5.87;3.27;;;;;;;-144.99;95.20;52480.72;5108021;28;20227;-76
2021/01/20 11:08:38;;;;;;;5.27;3.03;;;;;;;-144.99;94.81;52513.31;5108049;28;20211;-75